createdAt,value
2022-09-20T00:01:07.715Z,9.50
2022-09-20T00:03:36.479Z,9.50
2022-09-20T00:06:06.537Z,9.40
2022-09-20T00:08:35.967Z,9.40
2022-09-20T00:11:06.543Z,9.50
2022-09-20T00:13:36.278Z,9.40
2022-09-20T00:16:07.261Z,9.40
2022-09-20T00:18:35.070Z,9.40
2022-09-20T00:21:03.383Z,9.40
2022-09-20T00:23:31.157Z,9.40
2022-09-20T00:26:01.616Z,9.40
2022-09-20T00:28:30.159Z,9.30
2022-09-20T00:30:58.439Z,9.30
2022-09-20T00:33:47.274Z,9.30
2022-09-20T00:36:14.246Z,9.30
2022-09-20T00:38:42.099Z,9.30
2022-09-20T00:41:11.192Z,9.30
2022-09-20T00:43:41.792Z,9.30
2022-09-20T00:46:21.264Z,9.30
2022-09-20T00:48:50.434Z,9.20
2022-09-20T00:51:24.530Z,9.20
2022-09-20T00:53:54.568Z,9.20
2022-09-20T00:56:28.236Z,9.10
2022-09-20T00:59:04.671Z,9.10
2022-09-20T01:01:33.132Z,9.10
2022-09-20T01:04:02.002Z,9.10
2022-09-20T01:06:31.614Z,9.00
2022-09-20T01:09:02.543Z,9.00
2022-09-20T01:11:32.291Z,9.00
2022-09-20T01:14:00.048Z,9.00
2022-09-20T01:16:29.218Z,9.00
2022-09-20T01:18:59.648Z,8.90
2022-09-20T01:21:28.989Z,8.90
2022-09-20T01:24:03.851Z,8.90
2022-09-20T01:26:44.142Z,8.90
2022-09-20T01:29:26.886Z,9.00
2022-09-20T01:31:57.840Z,8.90
2022-09-20T01:34:32.968Z,8.90
2022-09-20T01:37:11.909Z,8.90
2022-09-20T01:39:53.070Z,8.90
2022-09-20T01:42:26.180Z,8.90
2022-09-20T01:45:02.603Z,8.90
2022-09-20T01:47:35.231Z,8.90
2022-09-20T01:50:13.323Z,8.90
2022-09-20T01:53:10.447Z,8.90
2022-09-20T01:56:08.666Z,8.90
2022-09-20T01:59:24.538Z,8.90
2022-09-20T02:02:19.974Z,8.90
2022-09-20T02:05:26.474Z,8.80
2022-09-20T02:08:08.839Z,8.80
2022-09-20T02:10:48.331Z,8.80
2022-09-20T02:13:31.048Z,8.80
2022-09-20T02:16:32.513Z,8.80
2022-09-20T02:19:22.081Z,8.70
2022-09-20T02:22:05.214Z,8.80
2022-09-20T02:24:45.367Z,8.70
2022-09-20T02:27:24.414Z,8.70
2022-09-20T02:30:05.231Z,8.70
2022-09-20T02:32:57.678Z,8.70
2022-09-20T02:35:38.909Z,8.80
2022-09-20T02:38:25.752Z,8.80
2022-09-20T02:41:09.152Z,8.90
2022-09-20T02:43:49.494Z,8.90
2022-09-20T02:46:23.548Z,8.90
2022-09-20T02:49:01.505Z,8.90
2022-09-20T02:51:37.049Z,8.90
2022-09-20T02:54:16.190Z,9.00
2022-09-20T02:56:52.570Z,9.00
2022-09-20T02:59:27.356Z,9.00
2022-09-20T03:02:05.595Z,9.00
2022-09-20T03:04:46.677Z,9.10
2022-09-20T03:07:23.600Z,9.10
2022-09-20T03:10:02.565Z,9.10
2022-09-20T03:12:39.053Z,9.10
2022-09-20T03:15:17.766Z,9.10
2022-09-20T03:17:51.742Z,9.10
2022-09-20T03:20:31.033Z,9.10
2022-09-20T03:23:11.415Z,9.10
2022-09-20T03:25:55.945Z,9.00
2022-09-20T03:28:43.492Z,9.00
2022-09-20T03:31:21.300Z,8.90
2022-09-20T03:34:01.612Z,8.90
2022-09-20T03:37:04.321Z,8.90
2022-09-20T03:39:59.642Z,8.80
2022-09-20T03:42:29.997Z,8.80
2022-09-20T03:45:23.776Z,8.80
2022-09-20T03:48:17.006Z,8.70
2022-09-20T03:50:55.407Z,8.70
2022-09-20T03:53:52.045Z,8.70
2022-09-20T03:56:59.884Z,8.60
2022-09-20T03:59:45.413Z,8.60
2022-09-20T04:02:35.351Z,8.60
2022-09-20T04:05:07.602Z,8.60
2022-09-20T04:07:44.159Z,8.50
2022-09-20T04:10:20.009Z,8.50
2022-09-20T04:13:11.113Z,8.50
2022-09-20T04:15:48.452Z,8.50
2022-09-20T04:18:26.012Z,8.50
2022-09-20T04:20:59.893Z,8.40
2022-09-20T04:23:39.147Z,8.40
2022-09-20T04:26:07.996Z,8.40
2022-09-20T04:28:42.115Z,8.40
2022-09-20T04:31:20.957Z,8.40
2022-09-20T04:33:52.075Z,8.40
2022-09-20T04:36:36.112Z,8.40
2022-09-20T04:39:31.402Z,8.30
2022-09-20T04:42:28.564Z,8.30
2022-09-20T04:45:22.206Z,8.20
2022-09-20T04:48:10.425Z,8.20
2022-09-20T04:51:04.048Z,8.20
2022-09-20T04:54:01.002Z,8.20
2022-09-20T04:56:42.347Z,8.10
2022-09-20T04:59:11.304Z,8.10
2022-09-20T05:02:09.614Z,8.10
2022-09-20T05:05:03.469Z,8.10
2022-09-20T05:08:22.717Z,8.10
2022-09-20T05:11:18.335Z,8.00
2022-09-20T05:14:13.656Z,8.00
2022-09-20T05:17:08.266Z,8.00
2022-09-20T05:19:45.786Z,8.00
2022-09-20T05:22:46.601Z,8.00
2022-09-20T05:25:59.130Z,7.90
2022-09-20T05:28:31.405Z,7.90
2022-09-20T05:31:03.972Z,8.00
2022-09-20T05:33:41.828Z,8.00
2022-09-20T05:36:15.708Z,8.00
2022-09-20T05:38:49.548Z,8.10
2022-09-20T05:41:24.768Z,8.10
2022-09-20T05:43:59.410Z,8.10
2022-09-20T05:46:37.753Z,8.20
2022-09-20T05:49:17.830Z,8.20
2022-09-20T05:52:04.148Z,8.30
2022-09-20T05:54:55.673Z,8.30
2022-09-20T05:57:36.700Z,8.40
2022-09-20T06:00:08.883Z,8.40
2022-09-20T06:02:44.401Z,8.50
2022-09-20T06:05:17.406Z,8.60
2022-09-20T06:08:00.810Z,8.60
2022-09-20T06:10:47.396Z,8.70
2022-09-20T06:14:03.637Z,8.70
2022-09-20T06:16:41.279Z,8.70
2022-09-20T06:19:19.879Z,8.80
2022-09-20T06:21:52.863Z,8.80
2022-09-20T06:24:34.897Z,8.90
2022-09-20T06:27:08.842Z,8.90
2022-09-20T06:29:41.028Z,9.00
2022-09-20T06:32:09.025Z,9.10
2022-09-20T06:34:37.225Z,9.10
2022-09-20T06:37:34.738Z,9.20
2022-09-20T06:40:33.238Z,9.30
2022-09-20T06:43:01.234Z,9.30
2022-09-20T06:45:28.969Z,9.40
2022-09-20T06:47:56.722Z,9.50
2022-09-20T06:50:25.275Z,9.50
2022-09-20T06:52:55.715Z,9.60
2022-09-20T06:55:32.105Z,9.70
2022-09-20T06:57:59.841Z,9.80
2022-09-20T07:00:27.737Z,9.80
2022-09-20T07:02:55.448Z,9.90
2022-09-20T07:05:24.375Z,9.90
2022-09-20T07:07:57.041Z,10.00
2022-09-20T07:10:28.030Z,10.10
2022-09-20T07:12:59.381Z,10.20
2022-09-20T07:15:28.210Z,10.20
2022-09-20T07:17:56.052Z,10.30
2022-09-20T07:20:24.338Z,10.30
2022-09-20T07:22:52.233Z,10.30
2022-09-20T07:25:20.203Z,10.40
2022-09-20T07:27:51.383Z,10.40
2022-09-20T07:30:20.514Z,10.50
2022-09-20T07:32:48.545Z,10.50
2022-09-20T07:35:16.465Z,10.60
2022-09-20T07:37:44.817Z,10.60
2022-09-20T07:40:12.890Z,10.70
2022-09-20T07:42:40.666Z,10.70
2022-09-20T07:45:12.881Z,10.80
2022-09-20T07:47:41.975Z,10.80
2022-09-20T07:50:11.630Z,10.90
2022-09-20T07:52:39.458Z,10.90
2022-09-20T07:55:07.806Z,11.00
2022-09-20T07:57:37.452Z,11.00
2022-09-20T08:00:08.192Z,11.10
2022-09-20T08:02:37.426Z,11.10
2022-09-20T08:05:06.477Z,11.20
2022-09-20T08:07:34.684Z,11.30
2022-09-20T08:10:02.372Z,11.30
2022-09-20T08:15:18.642Z,11.40
2022-09-20T08:17:49.489Z,11.50
2022-09-20T08:20:18.418Z,11.50
2022-09-20T08:23:00.842Z,11.60
2022-09-20T08:25:34.697Z,11.60
2022-09-20T08:28:02.774Z,11.70
2022-09-20T08:30:30.903Z,11.70
2022-09-20T08:32:59.941Z,11.80
2022-09-20T08:35:29.730Z,11.80
2022-09-20T08:39:56.031Z,11.90
2022-09-20T08:40:45.392Z,11.90
2022-09-20T08:43:14.468Z,11.90
2022-09-20T08:45:42.844Z,12.00
2022-09-20T08:48:17.725Z,12.00
2022-09-20T08:50:45.531Z,12.10
2022-09-20T08:53:20.932Z,12.10
2022-09-20T08:55:49.489Z,12.20
2022-09-20T08:58:19.233Z,12.20
2022-09-20T09:00:48.424Z,12.30
2022-09-20T09:03:19.449Z,12.30
2022-09-20T09:05:49.098Z,12.40
2022-09-20T09:08:19.490Z,12.50
2022-09-20T09:10:53.085Z,12.50
2022-09-20T09:13:26.392Z,12.60
2022-09-20T09:16:00.178Z,12.70
2022-09-20T09:18:34.779Z,12.70
2022-09-20T09:21:04.837Z,12.80
2022-09-20T09:23:41.169Z,13.00
2022-09-20T09:26:17.142Z,13.10
2022-09-20T09:28:45.246Z,13.20
2022-09-20T09:31:22.172Z,13.20
2022-09-20T09:33:51.421Z,13.20
2022-09-20T09:36:24.592Z,13.20
2022-09-20T09:39:12.563Z,13.20
2022-09-20T09:41:43.274Z,13.30
2022-09-20T09:44:22.487Z,13.40
2022-09-20T09:46:51.104Z,13.40
2022-09-20T09:49:21.106Z,13.60
2022-09-20T09:52:07.541Z,13.70
2022-09-20T09:54:38.282Z,13.80
2022-09-20T09:57:28.453Z,13.90
2022-09-20T10:00:11.005Z,14.10
2022-09-20T10:03:09.308Z,14.30
2022-09-20T10:05:44.621Z,14.30
2022-09-20T10:08:23.876Z,14.30
2022-09-20T10:11:03.757Z,14.40
2022-09-20T10:13:41.497Z,14.40
2022-09-20T10:16:17.700Z,14.50
2022-09-20T10:18:54.474Z,14.60
2022-09-20T10:21:39.118Z,14.50
2022-09-20T10:24:22.228Z,14.50
2022-09-20T10:27:08.443Z,14.40
2022-09-20T10:29:53.015Z,14.20
2022-09-20T10:32:32.998Z,14.10
2022-09-20T10:35:16.651Z,14.10
2022-09-20T10:37:55.862Z,14.20
2022-09-20T10:40:47.219Z,14.20
2022-09-20T10:43:27.746Z,14.40
2022-09-20T10:49:04.557Z,14.90
2022-09-20T10:51:45.930Z,15.10
2022-09-20T10:54:27.062Z,15.30
2022-09-20T10:57:07.043Z,15.50
2022-09-20T10:59:47.312Z,15.60
2022-09-20T11:02:31.801Z,15.60
2022-09-20T11:05:29.118Z,15.40
2022-09-20T11:08:07.178Z,15.20
2022-09-20T11:10:39.728Z,15.00
2022-09-20T11:13:14.461Z,14.80
2022-09-20T11:15:48.182Z,14.80
2022-09-20T11:18:23.152Z,14.70
2022-09-20T11:20:59.096Z,14.50
2022-09-20T11:23:34.041Z,14.40
2022-09-20T11:26:08.432Z,14.20
2022-09-20T11:28:41.555Z,14.20
2022-09-20T11:31:15.711Z,14.30
2022-09-20T11:33:52.091Z,14.40
2022-09-20T11:36:26.947Z,14.60
2022-09-20T11:38:58.912Z,14.70
2022-09-20T11:41:29.233Z,14.80
2022-09-20T11:44:02.029Z,15.00
2022-09-20T11:46:32.726Z,15.10
2022-09-20T11:49:05.639Z,15.10
2022-09-20T11:52:12.424Z,15.10
2022-09-20T11:55:20.916Z,15.00
2022-09-20T11:58:03.860Z,14.90
2022-09-20T12:00:34.615Z,15.00
2022-09-20T12:03:04.871Z,15.10
2022-09-20T12:05:38.112Z,15.20
2022-09-20T12:08:08.947Z,15.40
2022-09-20T12:10:40.132Z,15.50
2022-09-20T12:13:19.289Z,15.70
2022-09-20T12:15:47.206Z,15.80
2022-09-20T12:18:32.004Z,15.90
2022-09-20T12:21:15.359Z,16.00
2022-09-20T12:24:02.949Z,16.00
2022-09-20T12:26:45.228Z,16.00
2022-09-20T12:29:55.612Z,16.00
2022-09-20T12:32:40.555Z,16.00
2022-09-20T12:35:59.301Z,16.00
2022-09-20T12:38:34.899Z,16.00
2022-09-20T12:41:07.836Z,15.90
2022-09-20T12:43:39.972Z,15.80
2022-09-20T12:46:11.994Z,15.90
2022-09-20T12:48:40.470Z,15.90
2022-09-20T12:51:39.417Z,15.90
2022-09-20T12:54:11.749Z,16.00
2022-09-20T12:56:42.081Z,16.00
2022-09-20T12:59:23.930Z,16.00
2022-09-20T13:01:52.039Z,16.10
2022-09-20T13:04:41.528Z,16.10
2022-09-20T13:07:38.928Z,16.10
2022-09-20T13:10:24.801Z,16.00
2022-09-20T13:12:58.570Z,16.00
2022-09-20T13:15:27.244Z,16.10
2022-09-20T13:17:57.785Z,16.20
2022-09-20T13:20:30.959Z,16.10
2022-09-20T13:23:00.713Z,16.10
2022-09-20T13:25:30.260Z,16.00
2022-09-20T13:28:08.121Z,15.90
2022-09-20T13:30:36.066Z,15.70
2022-09-20T13:33:18.438Z,15.60
2022-09-20T13:35:48.461Z,15.70
2022-09-20T13:38:25.000Z,15.70
2022-09-20T13:41:00.505Z,15.80
2022-09-20T13:43:32.281Z,15.90
2022-09-20T13:46:02.028Z,15.90
2022-09-20T13:48:31.163Z,16.00
2022-09-20T13:50:59.459Z,16.10
2022-09-20T13:53:41.517Z,16.10
2022-09-20T13:56:17.358Z,16.10
2022-09-20T13:58:45.239Z,16.00
2022-09-20T14:01:24.487Z,16.00
2022-09-20T14:03:53.827Z,16.00
2022-09-20T14:06:29.694Z,16.10
2022-09-20T14:08:59.944Z,16.10
2022-09-20T14:11:31.329Z,16.10
2022-09-20T14:14:01.617Z,16.10
2022-09-20T14:16:32.519Z,16.00
2022-09-20T14:19:00.988Z,16.00
2022-09-20T14:21:32.649Z,16.10
2022-09-20T14:24:02.917Z,16.10
2022-09-20T14:26:34.888Z,16.20
2022-09-20T14:29:29.746Z,16.30
2022-09-20T14:32:00.050Z,16.30
2022-09-20T14:34:27.952Z,16.30
2022-09-20T14:37:06.274Z,16.30
2022-09-20T14:39:35.891Z,16.20
2022-09-20T14:42:05.549Z,16.20
2022-09-20T14:44:36.289Z,16.20
2022-09-20T14:47:15.112Z,16.10
2022-09-20T14:49:45.094Z,16.00
2022-09-20T14:52:37.698Z,15.90
2022-09-20T14:55:20.507Z,15.90
2022-09-20T14:57:50.134Z,15.80
2022-09-20T15:00:20.694Z,15.80
2022-09-20T15:02:49.159Z,15.70
2022-09-20T15:05:23.903Z,15.70
2022-09-20T15:07:51.652Z,15.70
2022-09-20T15:10:19.719Z,15.70
2022-09-20T15:12:47.517Z,15.60
2022-09-20T15:15:18.929Z,15.60
2022-09-20T15:17:48.574Z,15.50
2022-09-20T15:20:23.784Z,15.50
2022-09-20T15:22:52.341Z,15.50
2022-09-20T15:25:22.323Z,15.40
2022-09-20T15:27:50.957Z,15.40
2022-09-20T15:30:20.891Z,15.30
2022-09-20T15:32:48.668Z,15.20
2022-09-20T15:35:17.246Z,15.10
2022-09-20T15:37:45.806Z,15.10
2022-09-20T15:40:13.773Z,15.00
2022-09-20T15:42:43.240Z,14.90
2022-09-20T15:45:13.338Z,14.80
2022-09-20T15:47:42.538Z,14.80
2022-09-20T15:50:11.406Z,14.70
2022-09-20T15:52:41.496Z,14.70
2022-09-20T15:55:10.913Z,14.60
2022-09-20T15:57:39.587Z,14.60
2022-09-20T16:00:09.429Z,14.60
2022-09-20T16:02:37.354Z,14.60
2022-09-20T16:05:07.240Z,14.60
2022-09-20T16:07:35.772Z,14.60
2022-09-20T16:10:03.833Z,14.50
2022-09-20T16:12:31.842Z,14.50
2022-09-20T16:14:59.577Z,14.50
2022-09-20T16:17:41.293Z,14.50
2022-09-20T16:20:11.335Z,14.50
2022-09-20T16:22:39.057Z,14.50
2022-09-20T16:25:08.669Z,14.50
2022-09-20T16:27:36.422Z,14.50
2022-09-20T16:30:04.746Z,14.40
2022-09-20T16:32:34.643Z,14.40
2022-09-20T16:35:07.799Z,14.30
2022-09-20T16:37:39.312Z,14.30
2022-09-20T16:40:14.227Z,14.20
2022-09-20T16:42:42.828Z,14.10
2022-09-20T16:45:13.328Z,14.10
2022-09-20T16:47:41.165Z,14.00
2022-09-20T16:50:11.883Z,14.00
2022-09-20T16:52:41.002Z,13.90
2022-09-20T16:55:10.986Z,13.90
2022-09-20T16:57:39.186Z,13.80
2022-09-20T17:00:08.139Z,13.70
2022-09-20T17:02:36.148Z,13.70
2022-09-20T17:05:03.981Z,13.60
2022-09-20T17:07:32.596Z,13.60
2022-09-20T17:10:01.875Z,13.50
2022-09-20T17:12:33.214Z,13.40
2022-09-20T17:15:00.904Z,13.30
2022-09-20T17:17:28.756Z,13.20
2022-09-20T17:19:56.522Z,13.10
2022-09-20T17:22:24.229Z,13.00
2022-09-20T17:24:51.982Z,12.90
2022-09-20T17:27:21.183Z,12.90
2022-09-20T17:29:51.968Z,12.70
2022-09-20T17:32:20.424Z,12.70
2022-09-20T17:34:48.274Z,12.60
2022-09-20T17:37:16.042Z,12.50
2022-09-20T17:39:43.780Z,12.40
2022-09-20T17:42:11.844Z,12.40
2022-09-20T17:44:40.880Z,12.30
2022-09-20T17:47:09.211Z,12.20
2022-09-20T17:49:38.350Z,12.20
2022-09-20T17:52:07.927Z,12.10
2022-09-20T17:54:35.810Z,12.10
2022-09-20T17:57:05.457Z,12.00
2022-09-20T17:59:34.357Z,11.90
2022-09-20T18:02:03.402Z,11.90
2022-09-20T18:04:31.200Z,11.80
2022-09-20T18:06:58.888Z,11.80
2022-09-20T18:09:27.623Z,11.70
2022-09-20T18:11:56.361Z,11.70
2022-09-20T18:14:25.808Z,11.60
2022-09-20T18:16:55.039Z,11.50
2022-09-20T18:19:24.311Z,11.50
2022-09-20T18:21:52.794Z,11.40
2022-09-20T18:24:20.654Z,11.40
2022-09-20T18:26:48.374Z,11.40
2022-09-20T18:29:18.182Z,11.30
2022-09-20T18:31:48.533Z,11.30
2022-09-20T18:34:18.637Z,11.20
2022-09-20T18:36:52.826Z,11.20
2022-09-20T18:39:21.347Z,11.20
2022-09-20T18:41:50.294Z,11.10
2022-09-20T18:44:18.354Z,11.10
2022-09-20T18:46:46.919Z,11.10
2022-09-20T18:49:17.048Z,11.00
2022-09-20T18:51:47.385Z,11.00
2022-09-20T18:54:15.462Z,11.00
2022-09-20T18:56:44.862Z,10.90
2022-09-20T18:59:15.825Z,10.80
2022-09-20T19:01:59.905Z,10.80
2022-09-20T19:04:49.610Z,10.80
2022-09-20T19:07:25.522Z,10.80
2022-09-20T19:10:01.112Z,10.70
2022-09-20T19:12:39.085Z,10.70
2022-09-20T19:15:24.435Z,10.60
2022-09-20T19:18:06.197Z,10.60
2022-09-20T19:20:39.796Z,10.50
2022-09-20T19:23:26.745Z,10.50
2022-09-20T19:26:04.429Z,10.50
2022-09-20T19:28:33.196Z,10.50
2022-09-20T19:31:01.492Z,10.40
2022-09-20T19:33:30.085Z,10.40
2022-09-20T19:35:59.546Z,10.40
2022-09-20T19:38:36.827Z,10.30
2022-09-20T19:41:18.045Z,10.30
2022-09-20T19:44:04.307Z,10.30
2022-09-20T19:47:06.162Z,10.30
2022-09-20T19:49:53.602Z,10.20
2022-09-20T19:52:21.994Z,10.20
2022-09-20T19:54:52.401Z,10.10
2022-09-20T19:57:22.607Z,10.10
2022-09-20T19:59:51.508Z,10.10
2022-09-20T20:02:19.681Z,10.00
2022-09-20T20:04:47.857Z,10.00
2022-09-20T20:07:27.692Z,10.00
2022-09-20T20:10:03.945Z,10.00
2022-09-20T20:12:36.752Z,10.00
2022-09-20T20:15:16.723Z,9.90
2022-09-20T20:17:53.282Z,9.90
2022-09-20T20:20:29.939Z,9.90
2022-09-20T20:23:40.706Z,9.80
2022-09-20T20:26:12.513Z,9.80
2022-09-20T20:28:40.296Z,9.80
2022-09-20T20:31:12.665Z,9.70
2022-09-20T20:33:40.780Z,9.70
2022-09-20T20:36:11.112Z,9.70
2022-09-20T20:38:40.288Z,9.70
2022-09-20T20:41:11.088Z,9.70
2022-09-20T20:43:40.817Z,9.60
2022-09-20T20:46:11.404Z,9.60
2022-09-20T20:48:39.264Z,9.60
2022-09-20T20:51:09.540Z,9.60
2022-09-20T20:53:39.005Z,9.50
2022-09-20T20:56:08.705Z,9.50
2022-09-20T20:58:40.733Z,9.50
2022-09-20T21:01:10.338Z,9.50
2022-09-20T21:03:38.461Z,9.50
2022-09-20T21:06:06.777Z,9.50
2022-09-20T21:08:35.835Z,9.40
2022-09-20T21:11:05.710Z,9.40
2022-09-20T21:13:35.162Z,9.40
2022-09-20T21:16:06.271Z,9.40
2022-09-20T21:18:34.717Z,9.40
2022-09-20T21:21:03.022Z,9.30
2022-09-20T21:23:33.633Z,9.30
2022-09-20T21:26:07.190Z,9.30
2022-09-20T21:28:36.750Z,9.30
2022-09-20T21:31:07.319Z,9.20
2022-09-20T21:33:35.807Z,9.20
2022-09-20T21:36:04.463Z,9.20
2022-09-20T21:38:34.000Z,9.10
2022-09-20T21:41:07.163Z,9.10
2022-09-20T21:43:35.631Z,9.10
2022-09-20T21:46:03.946Z,9.10
2022-09-20T21:48:33.608Z,9.10
2022-09-20T21:51:02.836Z,9.10
2022-09-20T21:53:31.463Z,9.10
2022-09-20T21:56:00.105Z,9.10
2022-09-20T21:58:28.906Z,9.00
2022-09-20T22:01:01.338Z,9.00
2022-09-20T22:03:35.163Z,9.00
2022-09-20T22:06:11.156Z,9.00
2022-09-20T22:08:40.696Z,8.90
2022-09-20T22:11:12.292Z,8.90
2022-09-20T22:13:43.711Z,8.90
2022-09-20T22:16:13.295Z,8.90
2022-09-20T22:18:44.003Z,8.90
2022-09-20T22:21:13.615Z,8.90
2022-09-20T22:23:42.190Z,8.80
2022-09-20T22:26:11.730Z,8.80
2022-09-20T22:28:39.471Z,8.80
2022-09-20T22:31:09.950Z,8.80
2022-09-20T22:33:43.430Z,8.80
2022-09-20T22:36:12.656Z,8.80
2022-09-20T22:38:40.427Z,8.70
2022-09-20T22:41:08.249Z,8.70
2022-09-20T22:43:36.353Z,8.70
2022-09-20T22:46:05.569Z,8.70
2022-09-20T22:48:34.718Z,8.70
2022-09-20T22:51:05.824Z,8.70
2022-09-20T22:53:34.502Z,8.60
2022-09-20T22:56:07.201Z,8.60
2022-09-20T22:58:36.698Z,8.60
2022-09-20T23:01:10.445Z,8.60
2022-09-20T23:03:38.930Z,8.60
2022-09-20T23:06:15.025Z,8.60
2022-09-20T23:08:42.835Z,8.60
2022-09-20T23:11:10.865Z,8.60
2022-09-20T23:13:38.732Z,8.60
2022-09-20T23:16:12.597Z,8.60
2022-09-20T23:18:40.618Z,8.60
2022-09-20T23:21:08.823Z,8.60
2022-09-20T23:23:38.178Z,8.50
2022-09-20T23:26:07.840Z,8.50
2022-09-20T23:28:36.707Z,8.50
2022-09-20T23:31:06.128Z,8.50
2022-09-20T23:33:34.812Z,8.50
2022-09-20T23:36:06.528Z,8.40
2022-09-20T23:38:34.219Z,8.40
2022-09-20T23:41:05.205Z,8.40
2022-09-20T23:43:33.328Z,8.40
2022-09-20T23:46:01.410Z,8.40
2022-09-20T23:48:30.067Z,8.40
2022-09-20T23:50:58.013Z,8.40
2022-09-20T23:53:26.014Z,8.30
2022-09-20T23:55:53.739Z,8.30
2022-09-20T23:58:23.070Z,8.30
